Terminal Aerodrome Forecast
Issued by NWS Wilmington, OH

Current Version | Previous Version | Graphics & Text | Print | Product List | Glossary On
Versions: 1 2 3 4 5 6 7 8 9 10 11 12
000
FTUS41 KILN 171100
TAFILN
TAF
KILN 171130Z 1712/1812 16007KT P6SM BKN250
     FM171400 20012KT P6SM BKN250
     FM180000 15006KT P6SM BKN200
     FM180700 17006KT P6SM BKN050=

USA.gov is the U.S. government's official web portal to all federal, state and local government web resources and services.